MKY weather

Mackay Airport
Mackay, Queensland, Australia

Public forecast

Using degrees Celsius for public forecast. Weather courtesy of forecast.io.

METAR (pilot weather report)

Retrieved 2017/06/28 18:00 UTC (35 minutes ago):

YBMK 281800Z AUTO 19006KT 9999 // OVC008 20/19 Q1019

TAF (pilot weather forecast)

Forecast is more than 12 hours old.

Closest forecast is Hamilton Island Airport, 50.5 nm (93.5 km) NNW. Retrieved 2017/06/25 18:00 UTC (3 days ago):

TAF YBHM 251717Z 2518/2606 16014KT 9999 FEW008 FM260000 16015KT 9999 FEW025